createdAt,value
2018-02-20T00:01:47.497Z,4.21
2018-02-20T00:04:16.720Z,4.15
2018-02-20T00:06:45.976Z,4.08
2018-02-20T00:09:15.488Z,4.00
2018-02-20T00:11:44.681Z,3.96
2018-02-20T00:14:13.973Z,3.95
2018-02-20T00:16:43.517Z,3.92
2018-02-20T00:19:12.730Z,3.86
2018-02-20T00:21:41.935Z,3.83
2018-02-20T00:24:11.476Z,3.74
2018-02-20T00:26:40.708Z,3.69
2018-02-20T00:29:09.958Z,3.66
2018-02-20T00:31:40.369Z,3.71
2018-02-20T00:34:09.575Z,3.71
2018-02-20T00:36:38.785Z,3.65
2018-02-20T00:39:07.990Z,3.65
2018-02-20T00:41:37.211Z,3.65
2018-02-20T00:44:06.768Z,3.68
2018-02-20T00:46:36.014Z,3.61
2018-02-20T00:49:05.386Z,3.64
2018-02-20T00:51:35.742Z,3.55
2018-02-20T00:54:05.559Z,3.52
2018-02-20T00:56:35.107Z,3.49
2018-02-20T00:59:04.697Z,3.46
2018-02-20T01:01:33.888Z,3.45
2018-02-20T01:04:03.778Z,3.51
2018-02-20T01:06:33.305Z,3.47
2018-02-20T01:09:03.980Z,3.41
2018-02-20T01:11:33.383Z,3.36
2018-02-20T01:14:03.837Z,3.34
2018-02-20T01:16:33.179Z,3.30
2018-02-20T01:19:02.848Z,3.34
2018-02-20T01:21:32.643Z,3.37
2018-02-20T01:24:02.958Z,3.37
2018-02-20T01:26:33.561Z,3.35
2018-02-20T01:29:03.316Z,3.41
2018-02-20T01:31:32.587Z,3.34
2018-02-20T01:34:03.362Z,3.30
2018-02-20T01:36:32.906Z,3.33
2018-02-20T01:39:02.330Z,3.32
2018-02-20T01:41:32.802Z,3.31
2018-02-20T01:44:02.905Z,3.25
2018-02-20T01:46:32.122Z,3.24
2018-02-20T01:49:01.795Z,3.17
2018-02-20T01:51:31.009Z,3.15
2018-02-20T01:54:00.292Z,3.17
2018-02-20T01:56:30.507Z,3.16
2018-02-20T01:58:59.755Z,3.15
2018-02-20T02:01:29.330Z,3.12
2018-02-20T02:03:58.525Z,3.12
2018-02-20T02:06:27.706Z,3.07
2018-02-20T02:08:58.265Z,3.06
2018-02-20T02:11:28.444Z,3.05
2018-02-20T02:13:57.630Z,3.06
2018-02-20T02:16:26.882Z,3.05
2018-02-20T02:18:56.270Z,3.08
2018-02-20T02:21:26.188Z,3.09
2018-02-20T02:23:55.422Z,3.14
2018-02-20T02:26:24.614Z,3.20
2018-02-20T02:28:54.058Z,3.23
2018-02-20T02:31:23.286Z,3.30
2018-02-20T02:33:52.576Z,3.23
2018-02-20T02:36:21.806Z,3.27
2018-02-20T02:38:51.035Z,3.28
2018-02-20T02:41:20.667Z,3.24
2018-02-20T02:43:49.906Z,3.23
2018-02-20T02:46:19.259Z,3.23
2018-02-20T02:48:49.468Z,3.23
2018-02-20T02:51:18.867Z,3.27
2018-02-20T02:53:48.066Z,3.31
2018-02-20T02:56:17.401Z,3.31
2018-02-20T02:58:46.932Z,3.33
2018-02-20T03:01:16.177Z,3.36
2018-02-20T03:03:45.393Z,3.37
2018-02-20T03:06:14.732Z,3.32
2018-02-20T03:08:43.926Z,3.45
2018-02-20T03:11:13.461Z,3.47
2018-02-20T03:13:42.743Z,3.45
2018-02-20T03:16:11.980Z,3.47
2018-02-20T03:18:41.162Z,3.47
2018-02-20T03:21:10.763Z,3.46
2018-02-20T03:23:39.983Z,3.45
2018-02-20T03:26:09.284Z,3.41
2018-02-20T03:28:38.504Z,3.37
2018-02-20T03:31:07.876Z,3.36
2018-02-20T03:33:37.478Z,3.42
2018-02-20T03:36:06.761Z,3.36
2018-02-20T03:38:35.981Z,3.40
2018-02-20T03:41:05.195Z,3.42
2018-02-20T03:43:35.402Z,3.39
2018-02-20T03:46:05.256Z,3.38
2018-02-20T03:48:34.790Z,3.41
2018-02-20T03:51:04.316Z,3.37
2018-02-20T03:53:33.870Z,3.40
2018-02-20T03:56:04.006Z,3.37
2018-02-20T03:58:33.543Z,3.38
2018-02-20T04:01:02.974Z,3.43
2018-02-20T04:03:32.332Z,3.40
2018-02-20T04:06:02.395Z,3.42
2018-02-20T04:08:31.647Z,3.41
2018-02-20T04:11:01.019Z,3.43
2018-02-20T04:13:30.583Z,3.46
2018-02-20T04:15:59.811Z,3.45
2018-02-20T04:18:29.061Z,3.60
2018-02-20T04:20:58.292Z,3.59
2018-02-20T04:23:28.412Z,3.61
2018-02-20T04:25:57.712Z,3.62
2018-02-20T04:28:27.219Z,3.67
2018-02-20T04:30:56.411Z,3.64
2018-02-20T04:33:25.683Z,3.67
2018-02-20T04:35:56.299Z,3.64
2018-02-20T04:38:25.538Z,3.68
2018-02-20T04:40:54.777Z,3.72
2018-02-20T04:43:24.123Z,3.73
2018-02-20T04:45:53.354Z,3.70
2018-02-20T04:48:23.735Z,3.64
2018-02-20T04:50:53.280Z,3.61
2018-02-20T04:53:22.566Z,3.67
2018-02-20T04:55:51.867Z,3.70
2018-02-20T04:58:21.115Z,3.77
2018-02-20T05:00:51.679Z,3.79
2018-02-20T05:03:20.965Z,3.78
2018-02-20T05:05:50.225Z,3.73
2018-02-20T05:08:19.903Z,3.80
2018-02-20T05:10:49.199Z,3.80
2018-02-20T05:13:18.538Z,3.86
2018-02-20T05:15:47.805Z,3.83
2018-02-20T05:18:17.084Z,3.87
2018-02-20T05:20:46.293Z,3.85
2018-02-20T05:23:15.567Z,3.88
2018-02-20T05:25:45.786Z,3.88
2018-02-20T05:28:15.044Z,3.86
2018-02-20T05:30:44.633Z,3.88
2018-02-20T05:33:13.905Z,3.84
2018-02-20T05:35:43.145Z,3.92
2018-02-20T05:38:12.706Z,3.97
2018-02-20T05:40:41.957Z,4.02
2018-02-20T05:43:11.204Z,4.12
2018-02-20T05:45:40.442Z,4.12
2018-02-20T05:48:09.957Z,4.14
2018-02-20T05:50:39.205Z,4.10
2018-02-20T05:53:08.465Z,4.05
2018-02-20T05:55:37.730Z,4.11
2018-02-20T05:58:07.400Z,4.01
2018-02-20T06:00:36.698Z,4.04
2018-02-20T06:03:05.980Z,4.04
2018-02-20T06:05:36.194Z,4.05
2018-02-20T06:08:06.147Z,4.02
2018-02-20T06:10:36.331Z,4.03
2018-02-20T06:13:05.979Z,4.03
2018-02-20T06:15:35.373Z,3.98
2018-02-20T06:18:05.708Z,3.99
2018-02-20T06:20:35.413Z,4.00
2018-02-20T06:23:06.571Z,3.97
2018-02-20T06:25:35.911Z,4.03
2018-02-20T06:28:06.983Z,4.02
2018-02-20T06:30:36.283Z,4.00
2018-02-20T06:33:05.585Z,4.01
2018-02-20T06:35:36.089Z,3.99
2018-02-20T06:38:06.594Z,4.03
2018-02-20T06:40:35.848Z,4.00
2018-02-20T06:43:05.445Z,3.99
2018-02-20T06:45:34.727Z,3.97
2018-02-20T06:48:04.685Z,3.99
2018-02-20T06:50:34.214Z,4.03
2018-02-20T06:53:03.708Z,4.05
2018-02-20T06:55:32.966Z,4.00
2018-02-20T06:58:03.434Z,4.06
2018-02-20T07:00:32.735Z,3.98
2018-02-20T07:03:02.088Z,3.92
2018-02-20T07:05:31.704Z,3.95
2018-02-20T07:08:01.166Z,4.00
2018-02-20T07:10:30.516Z,3.96
2018-02-20T07:13:00.229Z,4.00
2018-02-20T07:15:29.862Z,3.98
2018-02-20T07:17:59.268Z,3.98
2018-02-20T07:20:28.868Z,3.98
2018-02-20T07:22:59.325Z,3.98
2018-02-20T07:25:28.667Z,4.09
2018-02-20T07:27:58.289Z,4.11
2018-02-20T07:30:27.720Z,4.03
2018-02-20T07:32:56.999Z,4.03
2018-02-20T07:35:26.626Z,4.03
2018-02-20T07:37:55.891Z,4.10
2018-02-20T07:40:25.177Z,4.11
2018-02-20T07:42:54.718Z,4.15
2018-02-20T07:45:24.510Z,4.12
2018-02-20T07:47:53.832Z,4.08
2018-02-20T07:50:23.381Z,4.11
2018-02-20T07:52:52.646Z,4.18
2018-02-20T07:55:21.871Z,4.19
2018-02-20T07:57:51.417Z,4.13
2018-02-20T08:00:20.745Z,4.18
2018-02-20T08:02:50.053Z,4.22
2018-02-20T08:05:19.791Z,4.28
2018-02-20T08:07:49.079Z,4.32
2018-02-20T08:10:18.537Z,4.43
2018-02-20T08:12:48.201Z,4.27
2018-02-20T08:15:17.591Z,4.36
2018-02-20T08:17:46.857Z,4.34
2018-02-20T08:20:16.502Z,4.33
2018-02-20T08:22:45.804Z,4.42
2018-02-20T08:25:15.155Z,4.37
2018-02-20T08:27:44.714Z,4.46
2018-02-20T08:30:13.993Z,4.52
2018-02-20T08:32:43.348Z,4.53
2018-02-20T08:35:12.891Z,4.51
2018-02-20T08:37:43.295Z,4.43
2018-02-20T08:40:12.580Z,4.59
2018-02-20T08:42:43.191Z,4.69
2018-02-20T08:45:12.412Z,4.55
2018-02-20T08:47:41.678Z,4.69
2018-02-20T08:50:11.279Z,4.76
2018-02-20T08:52:40.634Z,4.77
2018-02-20T08:55:10.598Z,4.88
2018-02-20T08:57:41.200Z,5.19
2018-02-20T09:00:10.518Z,5.43
2018-02-20T09:02:39.760Z,5.48
2018-02-20T09:05:10.777Z,5.60
2018-02-20T09:07:40.016Z,5.70
2018-02-20T09:10:09.337Z,5.90
2018-02-20T09:12:38.902Z,6.67
2018-02-20T09:15:08.159Z,7.29
2018-02-20T09:17:37.412Z,7.67
2018-02-20T09:20:07.006Z,7.79
2018-02-20T09:22:36.939Z,7.95
2018-02-20T09:25:06.209Z,8.15
2018-02-20T09:27:35.835Z,8.34
2018-02-20T09:30:05.689Z,7.99
2018-02-20T09:32:35.689Z,7.95
2018-02-20T09:35:05.322Z,8.04
2018-02-20T09:37:34.600Z,7.95
2018-02-20T09:40:05.077Z,7.70
2018-02-20T09:42:34.615Z,7.65
2018-02-20T09:45:04.183Z,7.61
2018-02-20T09:47:33.468Z,7.57
2018-02-20T09:50:03.568Z,7.70
2018-02-20T09:52:32.857Z,7.87
2018-02-20T09:55:02.423Z,7.90
2018-02-20T09:57:32.057Z,7.95
2018-02-20T10:00:01.595Z,7.80
2018-02-20T10:02:30.850Z,7.42
2018-02-20T10:05:00.430Z,7.43
2018-02-20T10:07:29.680Z,7.51
2018-02-20T10:09:58.948Z,7.69
2018-02-20T10:12:28.550Z,7.84
2018-02-20T10:14:57.800Z,7.66
2018-02-20T10:17:27.069Z,7.81
2018-02-20T10:19:56.712Z,7.89
2018-02-20T10:22:25.942Z,7.97
2018-02-20T10:24:55.231Z,8.07
2018-02-20T10:27:25.812Z,7.94
2018-02-20T10:29:55.027Z,7.97
2018-02-20T10:32:24.347Z,7.91
2018-02-20T10:34:53.928Z,8.06
2018-02-20T10:37:24.419Z,8.11
2018-02-20T10:39:53.723Z,8.01
2018-02-20T10:42:23.414Z,8.01
2018-02-20T10:44:52.727Z,8.09
2018-02-20T10:47:21.940Z,8.26
2018-02-20T10:49:51.558Z,8.39
2018-02-20T10:52:20.896Z,8.20
2018-02-20T10:54:50.183Z,8.19
2018-02-20T10:57:19.547Z,8.24
2018-02-20T10:59:48.839Z,8.22
2018-02-20T11:02:18.471Z,8.26
2018-02-20T11:04:48.468Z,8.20
2018-02-20T11:07:17.859Z,8.52
2018-02-20T11:09:47.108Z,8.80
2018-02-20T11:12:16.379Z,9.32
2018-02-20T11:14:45.925Z,9.33
2018-02-20T11:17:15.178Z,9.60
2018-02-20T11:19:44.492Z,9.73
2018-02-20T11:22:14.025Z,9.75
2018-02-20T11:24:43.278Z,9.68
2018-02-20T11:27:12.553Z,9.51
2018-02-20T11:29:43.348Z,9.29
2018-02-20T11:32:12.632Z,9.38
2018-02-20T11:34:41.977Z,9.42
2018-02-20T11:37:12.292Z,9.44
2018-02-20T11:39:41.597Z,8.96
2018-02-20T11:42:10.927Z,9.09
2018-02-20T11:44:41.574Z,8.74
2018-02-20T11:47:10.832Z,8.62
2018-02-20T11:49:40.065Z,8.57
2018-02-20T11:52:09.682Z,8.28
2018-02-20T11:54:38.932Z,8.18
2018-02-20T11:57:08.192Z,8.23
2018-02-20T11:59:37.812Z,8.14
2018-02-20T12:02:07.094Z,7.99
2018-02-20T12:04:37.668Z,7.70
2018-02-20T12:07:07.243Z,7.68
2018-02-20T12:09:36.476Z,7.54
2018-02-20T12:12:06.442Z,7.58
2018-02-20T12:14:36.394Z,7.55
2018-02-20T12:17:05.651Z,7.45
2018-02-20T12:19:34.997Z,7.71
2018-02-20T12:22:05.306Z,7.96
2018-02-20T12:24:34.668Z,8.05
2018-02-20T12:27:04.204Z,8.29
2018-02-20T12:29:33.779Z,8.56
2018-02-20T12:32:04.065Z,8.95
2018-02-20T12:34:33.299Z,9.42
2018-02-20T12:37:03.044Z,9.49
2018-02-20T12:39:32.316Z,9.69
2018-02-20T12:42:01.804Z,10.08
2018-02-20T12:44:31.364Z,10.33
2018-02-20T12:47:00.611Z,10.69
2018-02-20T12:49:29.892Z,10.48
2018-02-20T12:51:59.462Z,10.95
2018-02-20T12:54:29.176Z,10.96
2018-02-20T12:56:58.411Z,10.97
2018-02-20T12:59:29.170Z,11.00
2018-02-20T13:01:58.416Z,10.87
2018-02-20T13:04:27.668Z,10.94
2018-02-20T13:06:57.246Z,10.59
2018-02-20T13:09:26.512Z,10.59
2018-02-20T13:11:55.782Z,10.44
2018-02-20T13:14:25.559Z,10.50
2018-02-20T13:16:54.880Z,10.32
2018-02-20T13:19:24.154Z,10.30
2018-02-20T13:21:54.003Z,10.12
2018-02-20T13:24:23.292Z,10.15
2018-02-20T13:26:52.776Z,10.02
2018-02-20T13:29:22.549Z,9.48
2018-02-20T13:31:51.782Z,9.48
2018-02-20T13:34:21.405Z,9.73
2018-02-20T13:36:51.176Z,9.46
2018-02-20T13:39:20.695Z,9.16
2018-02-20T13:41:49.937Z,9.26
2018-02-20T13:44:20.573Z,9.05
2018-02-20T13:46:49.876Z,9.21
2018-02-20T13:49:19.262Z,9.17
2018-02-20T13:51:48.928Z,9.33
2018-02-20T13:54:18.255Z,9.49
2018-02-20T13:56:47.552Z,9.45
2018-02-20T13:59:17.234Z,9.30
2018-02-20T14:01:46.488Z,9.36
2018-02-20T14:04:15.868Z,9.35
2018-02-20T14:06:45.575Z,9.62
2018-02-20T14:09:14.855Z,9.68
2018-02-20T14:11:45.178Z,9.69
2018-02-20T14:14:14.902Z,9.63
2018-02-20T14:16:44.208Z,9.47
2018-02-20T14:19:13.487Z,9.25
2018-02-20T14:21:43.219Z,9.16
2018-02-20T14:24:12.580Z,9.26
2018-02-20T14:26:41.882Z,9.19
2018-02-20T14:29:11.499Z,9.13
2018-02-20T14:31:40.743Z,8.87
2018-02-20T14:34:10.076Z,8.72
2018-02-20T14:36:39.663Z,8.48
2018-02-20T14:39:08.976Z,8.51
2018-02-20T14:41:38.354Z,8.52
2018-02-20T14:44:07.958Z,8.47
2018-02-20T14:46:37.322Z,8.46
2018-02-20T14:49:06.618Z,8.21
2018-02-20T14:51:36.284Z,8.21
2018-02-20T14:54:05.823Z,8.17
2018-02-20T14:56:35.161Z,8.11
2018-02-20T14:59:05.048Z,8.21
2018-02-20T15:01:34.482Z,8.06
2018-02-20T15:04:04.756Z,7.89
2018-02-20T15:06:34.529Z,7.87
2018-02-20T15:09:04.307Z,8.03
2018-02-20T15:11:34.218Z,8.06
2018-02-20T15:14:05.767Z,7.90
2018-02-20T15:16:35.081Z,7.90
2018-02-20T15:19:04.766Z,7.87
2018-02-20T15:21:34.351Z,7.88
2018-02-20T15:24:04.423Z,7.89
2018-02-20T15:26:34.874Z,7.63
2018-02-20T15:29:05.583Z,7.65
2018-02-20T15:31:34.916Z,7.73
2018-02-20T15:34:05.168Z,7.84
2018-02-20T15:36:35.319Z,7.83
2018-02-20T15:39:05.039Z,7.69
2018-02-20T15:41:35.076Z,7.77
2018-02-20T15:44:05.578Z,7.74
2018-02-20T15:46:35.888Z,7.59
2018-02-20T15:49:05.456Z,7.66
2018-02-20T15:51:35.429Z,7.55
2018-02-20T15:54:06.040Z,7.58
2018-02-20T15:56:36.411Z,7.43
2018-02-20T15:59:06.081Z,7.44
2018-02-20T16:01:35.675Z,7.56
2018-02-20T16:04:05.812Z,7.52
2018-02-20T16:06:35.555Z,7.58
2018-02-20T16:09:05.377Z,7.56
2018-02-20T16:14:15.683Z,7.55
2018-02-20T16:16:45.345Z,7.54
2018-02-20T16:19:14.992Z,7.49
2018-02-20T16:21:45.194Z,7.49
2018-02-20T16:24:14.552Z,7.34
2018-02-20T16:26:44.091Z,7.44
2018-02-20T16:29:13.365Z,7.43
2018-02-20T16:31:44.000Z,7.34
2018-02-20T16:34:13.268Z,7.32
2018-02-20T16:36:42.510Z,7.29
2018-02-20T16:39:12.171Z,7.26
2018-02-20T16:41:41.420Z,7.18
2018-02-20T16:44:10.799Z,7.11
2018-02-20T16:46:40.400Z,7.10
2018-02-20T16:49:09.806Z,7.14
2018-02-20T16:51:39.072Z,7.07
2018-02-20T16:54:08.400Z,7.06
2018-02-20T16:56:37.707Z,6.96
2018-02-20T16:59:07.926Z,6.94
2018-02-20T17:01:37.274Z,6.91
2018-02-20T17:04:07.299Z,6.86
2018-02-20T17:06:36.910Z,6.91
2018-02-20T17:09:06.759Z,6.85
2018-02-20T17:11:36.104Z,6.80
2018-02-20T17:14:06.280Z,6.79
2018-02-20T17:16:35.871Z,6.77
2018-02-20T17:19:05.155Z,6.74
2018-02-20T17:21:34.846Z,6.69
2018-02-20T17:24:05.062Z,6.65
2018-02-20T17:26:34.304Z,6.62
2018-02-20T17:29:04.118Z,6.61
2018-02-20T17:31:33.415Z,6.59
2018-02-20T17:34:04.862Z,6.54
2018-02-20T17:36:38.522Z,6.56
2018-02-20T17:39:08.053Z,6.55
2018-02-20T17:41:37.692Z,6.52
2018-02-20T17:44:06.999Z,6.48
2018-02-20T17:46:36.299Z,6.50
2018-02-20T17:49:06.159Z,6.53
2018-02-20T17:51:35.440Z,6.52
2018-02-20T17:54:05.541Z,6.52
2018-02-20T17:56:35.262Z,6.51
2018-02-20T17:59:05.295Z,6.50
2018-02-20T18:01:34.584Z,6.46
2018-02-20T18:04:05.569Z,6.53
2018-02-20T18:06:34.840Z,6.53
2018-02-20T18:09:04.611Z,6.53
2018-02-20T18:11:34.628Z,6.52
2018-02-20T18:14:05.079Z,6.50
2018-02-20T18:16:34.359Z,6.50
2018-02-20T18:19:04.177Z,6.54
2018-02-20T18:21:33.515Z,6.59
2018-02-20T18:24:05.557Z,6.57
2018-02-20T18:26:35.949Z,6.59
2018-02-20T18:29:05.676Z,6.60
2018-02-20T18:31:35.349Z,6.59
2018-02-20T18:34:05.564Z,6.56
2018-02-20T18:36:34.807Z,6.56
2018-02-20T18:39:04.992Z,6.49
2018-02-20T18:41:35.211Z,6.51
2018-02-20T18:44:05.257Z,6.43
2018-02-20T18:46:34.970Z,6.49
2018-02-20T18:49:04.615Z,6.34
2018-02-20T18:51:33.837Z,6.34
2018-02-20T18:54:04.542Z,6.43
2018-02-20T18:56:33.807Z,6.38
2018-02-20T18:59:03.330Z,6.38
2018-02-20T19:01:33.690Z,6.41
2018-02-20T19:04:05.431Z,6.38
2018-02-20T19:06:35.047Z,6.41
2018-02-20T19:09:05.625Z,6.35
2018-02-20T19:11:36.849Z,6.37
2018-02-20T19:14:07.579Z,6.37
2018-02-20T19:16:37.534Z,6.29
2018-02-20T19:19:06.799Z,6.23
2018-02-20T19:21:38.049Z,6.23
2018-02-20T19:24:07.292Z,6.25
2018-02-20T19:26:36.628Z,6.24
2018-02-20T19:29:06.050Z,6.26
2018-02-20T19:31:35.279Z,6.19
2018-02-20T19:34:05.537Z,6.24
2018-02-20T19:36:34.878Z,6.26
2018-02-20T19:39:04.458Z,6.28
2018-02-20T19:41:34.075Z,6.26
2018-02-20T19:46:35.418Z,6.27
2018-02-20T19:49:05.154Z,6.14
2018-02-20T19:51:35.426Z,6.05
2018-02-20T19:54:05.344Z,5.88
2018-02-20T19:56:35.235Z,5.71
2018-02-20T19:59:04.752Z,5.64
2018-02-20T20:01:34.004Z,5.69
2018-02-20T20:04:04.552Z,5.73
2018-02-20T20:06:33.776Z,5.68
2018-02-20T20:09:03.510Z,5.74
2018-02-20T20:11:35.579Z,5.81
2018-02-20T20:14:06.893Z,5.85
2018-02-20T20:16:36.129Z,5.86
2018-02-20T20:19:05.889Z,5.79
2018-02-20T20:21:35.191Z,5.80
2018-02-20T20:24:05.373Z,5.78
2018-02-20T20:26:34.656Z,5.78
2018-02-20T20:29:04.447Z,5.82
2018-02-20T20:31:34.082Z,5.80
2018-02-20T20:34:04.472Z,5.82
2018-02-20T20:36:33.746Z,5.89
2018-02-20T20:39:04.000Z,5.85
2018-02-20T20:41:33.632Z,5.79
2018-02-20T20:44:03.911Z,5.81
2018-02-20T20:46:34.890Z,5.84
2018-02-20T20:49:04.341Z,5.82
2018-02-20T20:51:33.639Z,5.87
2018-02-20T20:54:04.950Z,5.87
2018-02-20T20:56:34.546Z,5.96
2018-02-20T20:59:04.103Z,5.88
2018-02-20T21:01:33.872Z,5.80
2018-02-20T21:04:04.008Z,5.80
2018-02-20T21:06:33.436Z,5.76
2018-02-20T21:09:03.127Z,5.78
2018-02-20T21:11:32.740Z,5.73
2018-02-20T21:14:03.460Z,5.77
2018-02-20T21:16:33.641Z,5.78
2018-02-20T21:19:03.209Z,5.82
2018-02-20T21:21:33.010Z,5.91
2018-02-20T21:24:03.206Z,5.85
2018-02-20T21:26:32.439Z,5.91
2018-02-20T21:29:02.433Z,5.81
2018-02-20T21:31:31.658Z,5.77
2018-02-20T21:34:01.232Z,5.86
2018-02-20T21:38:57.174Z,5.75
2018-02-20T21:41:26.739Z,5.80
2018-02-20T21:43:56.271Z,5.79
2018-02-20T21:46:25.690Z,5.72
2018-02-20T21:48:54.917Z,5.73
2018-02-20T21:51:24.284Z,5.70
2018-02-20T21:53:53.533Z,5.68
2018-02-20T21:56:22.922Z,5.64
2018-02-20T21:58:52.648Z,5.48
2018-02-20T22:01:22.918Z,5.47
2018-02-20T22:03:52.206Z,5.51
2018-02-20T22:06:21.891Z,5.44
2018-02-20T22:08:51.113Z,5.49
2018-02-20T22:11:20.416Z,5.50
2018-02-20T22:13:49.958Z,5.46
2018-02-20T22:16:19.431Z,5.39
2018-02-20T22:18:48.678Z,5.41
2018-02-20T22:21:20.548Z,5.38
2018-02-20T22:23:49.839Z,5.40
2018-02-20T22:26:19.106Z,5.30
2018-02-20T22:28:48.800Z,5.18
2018-02-20T22:31:17.999Z,5.15
2018-02-20T22:33:47.246Z,5.15
2018-02-20T22:36:16.930Z,5.17
2018-02-20T22:38:46.160Z,5.13
2018-02-20T22:41:15.384Z,5.12
2018-02-20T22:43:45.093Z,5.19
2018-02-20T22:46:14.307Z,5.16
2018-02-20T22:48:43.537Z,5.14
2018-02-20T22:51:13.126Z,5.13
2018-02-20T22:53:42.446Z,5.21
2018-02-20T22:56:11.715Z,5.22
2018-02-20T22:58:43.326Z,5.20
2018-02-20T23:01:12.541Z,5.18
2018-02-20T23:03:41.804Z,5.21
2018-02-20T23:06:11.393Z,5.20
2018-02-20T23:08:40.608Z,5.18
2018-02-20T23:11:09.809Z,5.17
2018-02-20T23:13:39.576Z,5.08
2018-02-20T23:16:08.787Z,5.11
2018-02-20T23:18:38.003Z,5.15
2018-02-20T23:21:07.614Z,5.17
2018-02-20T23:23:36.835Z,5.19
2018-02-20T23:26:07.014Z,5.24
2018-02-20T23:28:37.006Z,5.15
2018-02-20T23:31:06.302Z,5.21
2018-02-20T23:33:35.530Z,5.14
2018-02-20T23:36:05.761Z,5.11
2018-02-20T23:38:34.994Z,5.16
2018-02-20T23:41:04.386Z,5.20
2018-02-20T23:43:35.027Z,5.13
2018-02-20T23:46:05.151Z,5.01
2018-02-20T23:48:34.823Z,5.08
2018-02-20T23:51:08.686Z,5.09
2018-02-20T23:53:39.109Z,5.14
2018-02-20T23:56:08.529Z,5.13
2018-02-20T23:58:38.260Z,5.09
